sensor_id;sensor_type;location;lat;lon;timestamp;temperature;humidity
70214;DHT22;60138;55.808;37.078;2022-07-12T00:00:46;23.84;46.83
70214;DHT22;60138;55.808;37.078;2022-07-12T00:03:12;23.83;46.46
70214;DHT22;60138;55.808;37.078;2022-07-12T00:05:38;23.82;46.54
70214;DHT22;60138;55.808;37.078;2022-07-12T00:08:04;23.80;46.67
70214;DHT22;60138;55.808;37.078;2022-07-12T00:10:29;23.79;46.99
70214;DHT22;60138;55.808;37.078;2022-07-12T00:12:55;23.75;47.12
70214;DHT22;60138;55.808;37.078;2022-07-12T00:15:21;23.72;46.86
70214;DHT22;60138;55.808;37.078;2022-07-12T00:17:47;23.70;47.01
70214;DHT22;60138;55.808;37.078;2022-07-12T00:20:12;23.68;47.19
70214;DHT22;60138;55.808;37.078;2022-07-12T00:22:38;23.67;46.83
70214;DHT22;60138;55.808;37.078;2022-07-12T00:25:04;23.66;47.05
70214;DHT22;60138;55.808;37.078;2022-07-12T00:27:30;23.64;47.42
70214;DHT22;60138;55.808;37.078;2022-07-12T00:29:56;23.62;47.67
70214;DHT22;60138;55.808;37.078;2022-07-12T00:32:22;23.60;47.70
70214;DHT22;60138;55.808;37.078;2022-07-12T00:34:47;23.59;47.52
70214;DHT22;60138;55.808;37.078;2022-07-12T00:37:13;23.58;47.92
70214;DHT22;60138;55.808;37.078;2022-07-12T00:39:39;23.57;47.92
70214;DHT22;60138;55.808;37.078;2022-07-12T00:42:05;23.56;47.57
70214;DHT22;60138;55.808;37.078;2022-07-12T00:44:31;23.53;47.73
70214;DHT22;60138;55.808;37.078;2022-07-12T00:46:57;23.49;47.74
70214;DHT22;60138;55.808;37.078;2022-07-12T00:49:24;23.49;48.17
70214;DHT22;60138;55.808;37.078;2022-07-12T00:51:50;23.49;48.22
70214;DHT22;60138;55.808;37.078;2022-07-12T00:54:16;23.49;48.12
70214;DHT22;60138;55.808;37.078;2022-07-12T00:56:43;23.49;48.03
70214;DHT22;60138;55.808;37.078;2022-07-12T00:59:09;23.46;48.21
70214;DHT22;60138;55.808;37.078;2022-07-12T01:01:36;23.47;48.41
70214;DHT22;60138;55.808;37.078;2022-07-12T01:04:03;23.45;48.43
70214;DHT22;60138;55.808;37.078;2022-07-12T01:06:30;23.44;48.73
70214;DHT22;60138;55.808;37.078;2022-07-12T01:08:57;23.43;48.93
70214;DHT22;60138;55.808;37.078;2022-07-12T01:11:23;23.44;48.53
70214;DHT22;60138;55.808;37.078;2022-07-12T01:13:48;23.44;48.43
70214;DHT22;60138;55.808;37.078;2022-07-12T01:16:15;23.44;48.53
70214;DHT22;60138;55.808;37.078;2022-07-12T01:18:42;23.42;48.31
70214;DHT22;60138;55.808;37.078;2022-07-12T01:21:09;23.40;48.82
70214;DHT22;60138;55.808;37.078;2022-07-12T01:23:37;23.39;48.78
70214;DHT22;60138;55.808;37.078;2022-07-12T01:26:04;23.38;49.63
70214;DHT22;60138;55.808;37.078;2022-07-12T01:28:29;23.37;48.73
70214;DHT22;60138;55.808;37.078;2022-07-12T01:30:55;23.36;48.55
70214;DHT22;60138;55.808;37.078;2022-07-12T01:33:21;23.37;48.77
70214;DHT22;60138;55.808;37.078;2022-07-12T01:35:48;23.38;49.06
70214;DHT22;60138;55.808;37.078;2022-07-12T01:38:14;23.38;49.33
70214;DHT22;60138;55.808;37.078;2022-07-12T01:40:39;23.36;48.75
70214;DHT22;60138;55.808;37.078;2022-07-12T01:43:05;23.34;49.37
70214;DHT22;60138;55.808;37.078;2022-07-12T01:45:31;23.35;48.83
70214;DHT22;60138;55.808;37.078;2022-07-12T01:47:57;23.35;49.03
70214;DHT22;60138;55.808;37.078;2022-07-12T01:50:23;23.32;50.07
70214;DHT22;60138;55.808;37.078;2022-07-12T01:52:49;23.34;49.79
70214;DHT22;60138;55.808;37.078;2022-07-12T01:55:15;23.32;49.06
70214;DHT22;60138;55.808;37.078;2022-07-12T01:57:41;23.32;49.32
70214;DHT22;60138;55.808;37.078;2022-07-12T02:00:07;23.34;49.72
70214;DHT22;60138;55.808;37.078;2022-07-12T02:02:33;23.32;50.59
70214;DHT22;60138;55.808;37.078;2022-07-12T02:05:00;23.30;50.14
70214;DHT22;60138;55.808;37.078;2022-07-12T02:07:26;23.31;49.35
70214;DHT22;60138;55.808;37.078;2022-07-12T02:09:52;23.30;49.62
70214;DHT22;60138;55.808;37.078;2022-07-12T02:12:18;23.28;50.19
70214;DHT22;60138;55.808;37.078;2022-07-12T02:14:44;23.29;50.18
70214;DHT22;60138;55.808;37.078;2022-07-12T02:17:10;23.27;51.17
70214;DHT22;60138;55.808;37.078;2022-07-12T02:19:36;23.26;50.08
70214;DHT22;60138;55.808;37.078;2022-07-12T02:22:02;23.24;49.95
70214;DHT22;60138;55.808;37.078;2022-07-12T02:24:28;23.23;50.74
70214;DHT22;60138;55.808;37.078;2022-07-12T02:26:54;23.22;50.05
70214;DHT22;60138;55.808;37.078;2022-07-12T02:29:19;23.20;50.54
70214;DHT22;60138;55.808;37.078;2022-07-12T02:31:45;23.21;50.50
70214;DHT22;60138;55.808;37.078;2022-07-12T02:34:11;23.20;51.15
70214;DHT22;60138;55.808;37.078;2022-07-12T02:36:36;23.21;50.63
70214;DHT22;60138;55.808;37.078;2022-07-12T02:39:03;23.20;50.91
70214;DHT22;60138;55.808;37.078;2022-07-12T02:41:30;23.21;50.30
70214;DHT22;60138;55.808;37.078;2022-07-12T02:43:56;23.21;50.47
70214;DHT22;60138;55.808;37.078;2022-07-12T02:46:22;23.18;52.26
70214;DHT22;60138;55.808;37.078;2022-07-12T02:48:48;23.18;52.20
70214;DHT22;60138;55.808;37.078;2022-07-12T02:51:14;23.21;51.46
70214;DHT22;60138;55.808;37.078;2022-07-12T02:53:39;23.20;51.53
70214;DHT22;60138;55.808;37.078;2022-07-12T02:56:05;23.14;51.59
70214;DHT22;60138;55.808;37.078;2022-07-12T02:58:31;23.09;52.18
70214;DHT22;60138;55.808;37.078;2022-07-12T03:00:57;23.00;51.73
70214;DHT22;60138;55.808;37.078;2022-07-12T03:03:22;22.93;52.93
70214;DHT22;60138;55.808;37.078;2022-07-12T03:05:48;22.87;51.45
70214;DHT22;60138;55.808;37.078;2022-07-12T03:08:15;22.91;53.87
70214;DHT22;60138;55.808;37.078;2022-07-12T03:10:41;22.99;51.84
70214;DHT22;60138;55.808;37.078;2022-07-12T03:13:07;23.14;52.55
70214;DHT22;60138;55.808;37.078;2022-07-12T03:15:32;23.31;51.76
70214;DHT22;60138;55.808;37.078;2022-07-12T03:17:59;23.52;51.75
70214;DHT22;60138;55.808;37.078;2022-07-12T03:20:25;23.68;51.58
70214;DHT22;60138;55.808;37.078;2022-07-12T03:22:51;23.79;51.05
70214;DHT22;60138;55.808;37.078;2022-07-12T03:25:17;23.81;51.55
70214;DHT22;60138;55.808;37.078;2022-07-12T03:27:43;23.74;51.08
70214;DHT22;60138;55.808;37.078;2022-07-12T03:30:09;23.68;51.38
70214;DHT22;60138;55.808;37.078;2022-07-12T03:32:35;23.60;51.42
70214;DHT22;60138;55.808;37.078;2022-07-12T03:35:01;23.55;51.31
70214;DHT22;60138;55.808;37.078;2022-07-12T03:37:49;23.58;51.79
70214;DHT22;60138;55.808;37.078;2022-07-12T03:40:17;23.68;51.08
70214;DHT22;60138;55.808;37.078;2022-07-12T03:42:43;23.76;51.28
70214;DHT22;60138;55.808;37.078;2022-07-12T03:45:09;23.85;51.15
70214;DHT22;60138;55.808;37.078;2022-07-12T03:47:35;23.95;51.17
70214;DHT22;60138;55.808;37.078;2022-07-12T03:50:05;23.99;50.94
70214;DHT22;60138;55.808;37.078;2022-07-12T03:52:32;23.96;50.46
70214;DHT22;60138;55.808;37.078;2022-07-12T03:54:58;23.86;50.52
70214;DHT22;60138;55.808;37.078;2022-07-12T03:57:25;23.81;50.70
70214;DHT22;60138;55.808;37.078;2022-07-12T03:59:50;23.75;50.68
70214;DHT22;60138;55.808;37.078;2022-07-12T04:02:16;23.75;50.53
70214;DHT22;60138;55.808;37.078;2022-07-12T04:04:42;23.83;50.98
70214;DHT22;60138;55.808;37.078;2022-07-12T04:07:08;23.91;50.69
70214;DHT22;60138;55.808;37.078;2022-07-12T04:09:33;24.06;50.75
70214;DHT22;60138;55.808;37.078;2022-07-12T04:11:59;24.25;50.53
70214;DHT22;60138;55.808;37.078;2022-07-12T04:14:25;24.46;50.53
70214;DHT22;60138;55.808;37.078;2022-07-12T04:16:51;24.65;49.86
70214;DHT22;60138;55.808;37.078;2022-07-12T04:19:17;24.77;49.63
70214;DHT22;60138;55.808;37.078;2022-07-12T04:21:42;24.72;49.32
70214;DHT22;60138;55.808;37.078;2022-07-12T04:24:08;24.57;49.47
70214;DHT22;60138;55.808;37.078;2022-07-12T04:26:34;24.48;49.64
70214;DHT22;60138;55.808;37.078;2022-07-12T04:29:00;24.43;49.99
70214;DHT22;60138;55.808;37.078;2022-07-12T04:31:26;24.43;49.80
70214;DHT22;60138;55.808;37.078;2022-07-12T04:33:51;24.48;49.73
70214;DHT22;60138;55.808;37.078;2022-07-12T04:36:17;24.54;49.91
70214;DHT22;60138;55.808;37.078;2022-07-12T04:38:43;24.60;49.89
70214;DHT22;60138;55.808;37.078;2022-07-12T04:41:09;24.66;49.79
70214;DHT22;60138;55.808;37.078;2022-07-12T04:43:34;24.80;49.69
70214;DHT22;60138;55.808;37.078;2022-07-12T04:46:10;24.94;49.63
70214;DHT22;60138;55.808;37.078;2022-07-12T04:48:36;25.03;49.44
70214;DHT22;60138;55.808;37.078;2022-07-12T04:51:02;25.05;49.30
70214;DHT22;60138;55.808;37.078;2022-07-12T04:53:28;25.08;49.08
70214;DHT22;60138;55.808;37.078;2022-07-12T04:55:55;25.07;48.94
70214;DHT22;60138;55.808;37.078;2022-07-12T04:58:21;25.08;49.12
70214;DHT22;60138;55.808;37.078;2022-07-12T05:00:47;25.04;49.02
70214;DHT22;60138;55.808;37.078;2022-07-12T05:03:13;24.97;49.42
70214;DHT22;60138;55.808;37.078;2022-07-12T05:05:39;24.90;49.22
70214;DHT22;60138;55.808;37.078;2022-07-12T05:08:04;24.92;49.40
70214;DHT22;60138;55.808;37.078;2022-07-12T05:10:30;24.97;49.07
70214;DHT22;60138;55.808;37.078;2022-07-12T05:12:56;24.99;49.12
70214;DHT22;60138;55.808;37.078;2022-07-12T05:15:22;24.97;49.21
70214;DHT22;60138;55.808;37.078;2022-07-12T05:17:48;24.99;49.43
70214;DHT22;60138;55.808;37.078;2022-07-12T05:20:13;24.98;49.25
70214;DHT22;60138;55.808;37.078;2022-07-12T05:22:39;24.97;49.44
70214;DHT22;60138;55.808;37.078;2022-07-12T05:25:05;24.94;49.23
70214;DHT22;60138;55.808;37.078;2022-07-12T05:27:31;24.94;49.34
70214;DHT22;60138;55.808;37.078;2022-07-12T05:29:57;24.91;49.31
70214;DHT22;60138;55.808;37.078;2022-07-12T05:32:22;24.88;49.20
70214;DHT22;60138;55.808;37.078;2022-07-12T05:34:48;24.88;49.44
70214;DHT22;60138;55.808;37.078;2022-07-12T05:37:14;24.79;49.39
70214;DHT22;60138;55.808;37.078;2022-07-12T05:39:39;24.78;49.47
70214;DHT22;60138;55.808;37.078;2022-07-12T05:42:05;24.78;49.69
70214;DHT22;60138;55.808;37.078;2022-07-12T05:44:31;24.82;49.60
70214;DHT22;60138;55.808;37.078;2022-07-12T05:46:57;24.89;49.56
70214;DHT22;60138;55.808;37.078;2022-07-12T05:49:22;24.93;49.58
70214;DHT22;60138;55.808;37.078;2022-07-12T05:51:48;24.94;49.15
70214;DHT22;60138;55.808;37.078;2022-07-12T05:54:14;24.92;49.58
70214;DHT22;60138;55.808;37.078;2022-07-12T05:56:39;24.88;49.60
70214;DHT22;60138;55.808;37.078;2022-07-12T05:59:05;24.87;49.66
70214;DHT22;60138;55.808;37.078;2022-07-12T06:01:31;24.77;49.72
70214;DHT22;60138;55.808;37.078;2022-07-12T06:03:56;24.64;50.54
70214;DHT22;60138;55.808;37.078;2022-07-12T06:06:22;24.49;51.27
70214;DHT22;60138;55.808;37.078;2022-07-12T06:08:48;24.30;52.15
70214;DHT22;60138;55.808;37.078;2022-07-12T06:11:14;24.11;53.56
70214;DHT22;60138;55.808;37.078;2022-07-12T06:13:40;23.92;52.94
70214;DHT22;60138;55.808;37.078;2022-07-12T06:16:05;23.73;53.47
70214;DHT22;60138;55.808;37.078;2022-07-12T06:18:34;23.56;54.72
70214;DHT22;60138;55.808;37.078;2022-07-12T06:20:59;23.44;54.69
70214;DHT22;60138;55.808;37.078;2022-07-12T06:23:25;23.37;55.11
70214;DHT22;60138;55.808;37.078;2022-07-12T06:25:51;23.44;55.00
70214;DHT22;60138;55.808;37.078;2022-07-12T06:28:17;23.61;55.15
70214;DHT22;60138;55.808;37.078;2022-07-12T06:30:42;23.85;55.48
70214;DHT22;60138;55.808;37.078;2022-07-12T06:33:08;24.08;55.28
70214;DHT22;60138;55.808;37.078;2022-07-12T06:35:34;24.16;55.28
70214;DHT22;60138;55.808;37.078;2022-07-12T06:38:00;24.23;55.68
70214;DHT22;60138;55.808;37.078;2022-07-12T06:40:26;24.27;54.04
70214;DHT22;60138;55.808;37.078;2022-07-12T06:42:51;24.18;55.57
70214;DHT22;60138;55.808;37.078;2022-07-12T06:45:17;24.12;53.69
70214;DHT22;60138;55.808;37.078;2022-07-12T06:47:43;24.16;55.35
70214;DHT22;60138;55.808;37.078;2022-07-12T06:50:09;24.25;54.99
70214;DHT22;60138;55.808;37.078;2022-07-12T06:52:35;24.21;54.96
70214;DHT22;60138;55.808;37.078;2022-07-12T06:55:01;24.17;55.04
70214;DHT22;60138;55.808;37.078;2022-07-12T06:57:27;24.15;54.43
70214;DHT22;60138;55.808;37.078;2022-07-12T06:59:52;24.13;55.04
70214;DHT22;60138;55.808;37.078;2022-07-12T07:02:18;24.17;54.97
70214;DHT22;60138;55.808;37.078;2022-07-12T07:04:44;24.21;55.12
70214;DHT22;60138;55.808;37.078;2022-07-12T07:07:10;24.30;55.13
70214;DHT22;60138;55.808;37.078;2022-07-12T07:09:35;24.33;54.78
70214;DHT22;60138;55.808;37.078;2022-07-12T07:12:01;24.43;55.37
70214;DHT22;60138;55.808;37.078;2022-07-12T07:14:27;24.46;54.68
70214;DHT22;60138;55.808;37.078;2022-07-12T07:16:53;24.44;54.84
70214;DHT22;60138;55.808;37.078;2022-07-12T07:19:19;24.48;54.51
70214;DHT22;60138;55.808;37.078;2022-07-12T07:21:45;24.48;54.73
70214;DHT22;60138;55.808;37.078;2022-07-12T07:24:10;24.46;55.14
70214;DHT22;60138;55.808;37.078;2022-07-12T07:26:36;24.48;54.34
70214;DHT22;60138;55.808;37.078;2022-07-12T07:29:02;24.64;54.75
70214;DHT22;60138;55.808;37.078;2022-07-12T07:31:28;24.88;54.32
70214;DHT22;60138;55.808;37.078;2022-07-12T07:33:54;24.98;54.39
70214;DHT22;60138;55.808;37.078;2022-07-12T07:36:19;25.00;54.23
70214;DHT22;60138;55.808;37.078;2022-07-12T07:38:45;25.13;54.43
70214;DHT22;60138;55.808;37.078;2022-07-12T07:41:11;25.33;54.26
70214;DHT22;60138;55.808;37.078;2022-07-12T07:43:37;25.36;54.22
70214;DHT22;60138;55.808;37.078;2022-07-12T07:46:03;25.29;54.48
70214;DHT22;60138;55.808;37.078;2022-07-12T07:48:29;25.17;54.12
70214;DHT22;60138;55.808;37.078;2022-07-12T07:50:55;25.06;54.39
70214;DHT22;60138;55.808;37.078;2022-07-12T07:53:20;24.95;54.07
70214;DHT22;60138;55.808;37.078;2022-07-12T07:55:46;24.87;54.75
70214;DHT22;60138;55.808;37.078;2022-07-12T07:58:14;24.80;54.64
70214;DHT22;60138;55.808;37.078;2022-07-12T08:00:40;24.72;55.29
70214;DHT22;60138;55.808;37.078;2022-07-12T08:03:06;24.65;55.07
70214;DHT22;60138;55.808;37.078;2022-07-12T08:05:32;24.62;55.46
70214;DHT22;60138;55.808;37.078;2022-07-12T08:07:57;24.71;54.78
70214;DHT22;60138;55.808;37.078;2022-07-12T08:10:24;24.83;54.35
70214;DHT22;60138;55.808;37.078;2022-07-12T08:12:49;24.86;54.65
70214;DHT22;60138;55.808;37.078;2022-07-12T08:15:15;24.90;54.11
70214;DHT22;60138;55.808;37.078;2022-07-12T08:17:41;25.00;54.64
70214;DHT22;60138;55.808;37.078;2022-07-12T08:20:07;25.02;54.08
70214;DHT22;60138;55.808;37.078;2022-07-12T08:22:33;25.02;53.88
70214;DHT22;60138;55.808;37.078;2022-07-12T08:24:59;25.07;53.72
70214;DHT22;60138;55.808;37.078;2022-07-12T08:27:25;25.23;53.33
70214;DHT22;60138;55.808;37.078;2022-07-12T08:29:50;25.47;53.08
70214;DHT22;60138;55.808;37.078;2022-07-12T08:32:16;25.64;53.15
70214;DHT22;60138;55.808;37.078;2022-07-12T08:34:42;25.79;52.45
70214;DHT22;60138;55.808;37.078;2022-07-12T08:37:08;25.89;52.00
70214;DHT22;60138;55.808;37.078;2022-07-12T08:39:33;25.86;52.06
70214;DHT22;60138;55.808;37.078;2022-07-12T08:41:59;25.87;52.02
70214;DHT22;60138;55.808;37.078;2022-07-12T08:44:25;25.82;51.88
70214;DHT22;60138;55.808;37.078;2022-07-12T08:46:51;25.88;51.63
70214;DHT22;60138;55.808;37.078;2022-07-12T08:49:17;26.05;50.97
70214;DHT22;60138;55.808;37.078;2022-07-12T08:51:43;26.32;50.72
70214;DHT22;60138;55.808;37.078;2022-07-12T08:54:10;26.43;50.77
70214;DHT22;60138;55.808;37.078;2022-07-12T08:56:38;26.48;50.34
70214;DHT22;60138;55.808;37.078;2022-07-12T08:59:16;26.42;50.23
70214;DHT22;60138;55.808;37.078;2022-07-12T09:01:53;26.48;49.60
70214;DHT22;60138;55.808;37.078;2022-07-12T09:04:26;26.57;49.69
70214;DHT22;60138;55.808;37.078;2022-07-12T09:06:52;26.69;49.61
70214;DHT22;60138;55.808;37.078;2022-07-12T09:09:36;26.70;49.05
70214;DHT22;60138;55.808;37.078;2022-07-12T09:12:03;26.79;49.38
70214;DHT22;60138;55.808;37.078;2022-07-12T09:14:29;27.06;49.02
70214;DHT22;60138;55.808;37.078;2022-07-12T09:17:02;27.11;47.79
70214;DHT22;60138;55.808;37.078;2022-07-12T09:19:28;27.13;47.87
70214;DHT22;60138;55.808;37.078;2022-07-12T09:21:54;27.21;48.10
70214;DHT22;60138;55.808;37.078;2022-07-12T09:24:24;27.22;48.15
70214;DHT22;60138;55.808;37.078;2022-07-12T09:26:57;27.13;47.95
70214;DHT22;60138;55.808;37.078;2022-07-12T09:29:23;27.17;48.15
70214;DHT22;60138;55.808;37.078;2022-07-12T09:31:51;27.11;48.38
70214;DHT22;60138;55.808;37.078;2022-07-12T09:34:18;27.08;48.60
70214;DHT22;60138;55.808;37.078;2022-07-12T09:36:57;27.11;48.03
70214;DHT22;60138;55.808;37.078;2022-07-12T09:39:24;27.05;48.00
70214;DHT22;60138;55.808;37.078;2022-07-12T09:41:49;26.95;47.49
70214;DHT22;60138;55.808;37.078;2022-07-12T09:44:16;26.90;47.99
70214;DHT22;60138;55.808;37.078;2022-07-12T09:46:43;26.85;48.32
70214;DHT22;60138;55.808;37.078;2022-07-12T09:49:10;27.05;48.52
70214;DHT22;60138;55.808;37.078;2022-07-12T09:51:37;27.10;48.62
70214;DHT22;60138;55.808;37.078;2022-07-12T09:54:07;27.15;48.42
70214;DHT22;60138;55.808;37.078;2022-07-12T09:56:35;27.29;47.98
70214;DHT22;60138;55.808;37.078;2022-07-12T09:59:02;27.44;47.96
70214;DHT22;60138;55.808;37.078;2022-07-12T10:01:30;27.64;47.69
70214;DHT22;60138;55.808;37.078;2022-07-12T10:03:59;27.68;47.21
70214;DHT22;60138;55.808;37.078;2022-07-12T10:06:29;27.55;47.12
70214;DHT22;60138;55.808;37.078;2022-07-12T10:08:56;27.55;47.47
70214;DHT22;60138;55.808;37.078;2022-07-12T10:11:23;27.60;47.19
70214;DHT22;60138;55.808;37.078;2022-07-12T10:13:50;27.60;46.85
70214;DHT22;60138;55.808;37.078;2022-07-12T10:16:24;27.71;46.29
70214;DHT22;60138;55.808;37.078;2022-07-12T10:19:23;27.76;46.19
70214;DHT22;60138;55.808;37.078;2022-07-12T10:21:50;27.78;46.86
70214;DHT22;60138;55.808;37.078;2022-07-12T10:29:40;28.08;46.31
70214;DHT22;60138;55.808;37.078;2022-07-12T10:32:32;28.21;45.15
70214;DHT22;60138;55.808;37.078;2022-07-12T10:34:59;28.25;45.52
70214;DHT22;60138;55.808;37.078;2022-07-12T10:37:27;28.11;44.32
70214;DHT22;60138;55.808;37.078;2022-07-12T10:40:18;27.90;44.05
70214;DHT22;60138;55.808;37.078;2022-07-12T10:45:40;27.56;44.25
70214;DHT22;60138;55.808;37.078;2022-07-12T10:58:57;27.87;44.23
70214;DHT22;60138;55.808;37.078;2022-07-12T11:01:25;27.97;43.60
70214;DHT22;60138;55.808;37.078;2022-07-12T11:06:25;27.97;43.71
70214;DHT22;60138;55.808;37.078;2022-07-12T11:08:59;28.09;44.59
70214;DHT22;60138;55.808;37.078;2022-07-12T11:11:30;28.09;43.81
70214;DHT22;60138;55.808;37.078;2022-07-12T11:13:57;28.11;44.90
70214;DHT22;60138;55.808;37.078;2022-07-12T11:16:24;28.18;44.22
70214;DHT22;60138;55.808;37.078;2022-07-12T11:18:51;28.40;41.95
70214;DHT22;60138;55.808;37.078;2022-07-12T11:21:17;28.53;43.51
70214;DHT22;60138;55.808;37.078;2022-07-12T11:23:43;28.62;41.58
70214;DHT22;60138;55.808;37.078;2022-07-12T11:26:11;28.52;42.45
70214;DHT22;60138;55.808;37.078;2022-07-12T11:28:37;28.38;41.36
70214;DHT22;60138;55.808;37.078;2022-07-12T11:33:37;28.20;39.89
70214;DHT22;60138;55.808;37.078;2022-07-12T11:36:06;28.06;40.97
70214;DHT22;60138;55.808;37.078;2022-07-12T11:38:33;27.93;41.50
70214;DHT22;60138;55.808;37.078;2022-07-12T11:41:01;27.80;42.56
70214;DHT22;60138;55.808;37.078;2022-07-12T11:43:28;27.64;41.48
70214;DHT22;60138;55.808;37.078;2022-07-12T11:45:54;27.56;42.61
70214;DHT22;60138;55.808;37.078;2022-07-12T11:48:21;27.72;41.45
70214;DHT22;60138;55.808;37.078;2022-07-12T11:50:47;29.61;40.50
70214;DHT22;60138;55.808;37.078;2022-07-12T11:53:20;31.74;36.43
70214;DHT22;60138;55.808;37.078;2022-07-12T11:55:49;32.98;33.77
70214;DHT22;60138;55.808;37.078;2022-07-12T11:58:15;34.04;32.69
70214;DHT22;60138;55.808;37.078;2022-07-12T12:00:42;34.85;29.96
70214;DHT22;60138;55.808;37.078;2022-07-12T12:03:08;35.62;33.34
70214;DHT22;60138;55.808;37.078;2022-07-12T12:05:35;34.09;31.71
70214;DHT22;60138;55.808;37.078;2022-07-12T12:08:01;32.86;34.93
70214;DHT22;60138;55.808;37.078;2022-07-12T12:10:28;32.68;36.65
70214;DHT22;60138;55.808;37.078;2022-07-12T12:12:55;34.74;30.82
70214;DHT22;60138;55.808;37.078;2022-07-12T12:15:27;35.54;32.66
70214;DHT22;60138;55.808;37.078;2022-07-12T12:18:04;36.58;31.29
70214;DHT22;60138;55.808;37.078;2022-07-12T12:20:40;38.09;31.76
70214;DHT22;60138;55.808;37.078;2022-07-12T12:23:15;39.36;26.91
70214;DHT22;60138;55.808;37.078;2022-07-12T12:25:41;39.67;31.41
70214;DHT22;60138;55.808;37.078;2022-07-12T12:28:07;40.57;28.70
70214;DHT22;60138;55.808;37.078;2022-07-12T12:30:35;40.56;28.37
70214;DHT22;60138;55.808;37.078;2022-07-12T12:33:13;41.17;30.06
70214;DHT22;60138;55.808;37.078;2022-07-12T12:35:39;41.90;29.83
70214;DHT22;60138;55.808;37.078;2022-07-12T12:38:13;40.93;29.34
70214;DHT22;60138;55.808;37.078;2022-07-12T12:40:40;40.04;31.20
70214;DHT22;60138;55.808;37.078;2022-07-12T12:45:31;37.90;32.25
70214;DHT22;60138;55.808;37.078;2022-07-12T12:48:02;38.96;29.81
70214;DHT22;60138;55.808;37.078;2022-07-12T12:50:43;38.51;28.25
70214;DHT22;60138;55.808;37.078;2022-07-12T12:53:17;38.60;27.93
70214;DHT22;60138;55.808;37.078;2022-07-12T12:55:46;38.96;28.32
70214;DHT22;60138;55.808;37.078;2022-07-12T12:58:13;38.17;28.61
70214;DHT22;60138;55.808;37.078;2022-07-12T13:00:41;37.79;29.68
70214;DHT22;60138;55.808;37.078;2022-07-12T13:03:08;37.88;28.81
70214;DHT22;60138;55.808;37.078;2022-07-12T13:05:35;37.88;28.38
70214;DHT22;60138;55.808;37.078;2022-07-12T13:08:03;37.25;29.41
70214;DHT22;60138;55.808;37.078;2022-07-12T13:10:29;37.05;29.07
70214;DHT22;60138;55.808;37.078;2022-07-12T13:12:55;36.41;30.18
70214;DHT22;60138;55.808;37.078;2022-07-12T13:15:21;36.85;29.84
70214;DHT22;60138;55.808;37.078;2022-07-12T13:17:47;37.28;30.52
70214;DHT22;60138;55.808;37.078;2022-07-12T13:20:13;36.67;30.54
70214;DHT22;60138;55.808;37.078;2022-07-12T13:22:40;35.73;31.23
70214;DHT22;60138;55.808;37.078;2022-07-12T13:25:08;34.70;31.76
70214;DHT22;60138;55.808;37.078;2022-07-12T13:27:34;34.05;32.25
70214;DHT22;60138;55.808;37.078;2022-07-12T13:30:00;33.28;32.38
70214;DHT22;60138;55.808;37.078;2022-07-12T13:32:26;32.61;32.41
70214;DHT22;60138;55.808;37.078;2022-07-12T13:34:51;32.11;32.93
70214;DHT22;60138;55.808;37.078;2022-07-12T13:37:17;31.70;34.02
70214;DHT22;60138;55.808;37.078;2022-07-12T13:39:43;32.02;32.76
70214;DHT22;60138;55.808;37.078;2022-07-12T13:42:09;33.82;34.59
70214;DHT22;60138;55.808;37.078;2022-07-12T13:44:35;36.21;32.44
70214;DHT22;60138;55.808;37.078;2022-07-12T13:47:01;36.91;31.18
70214;DHT22;60138;55.808;37.078;2022-07-12T13:49:27;36.41;26.23
70214;DHT22;60138;55.808;37.078;2022-07-12T13:51:52;35.96;30.63
70214;DHT22;60138;55.808;37.078;2022-07-12T13:54:18;35.85;31.22
70214;DHT22;60138;55.808;37.078;2022-07-12T13:56:45;35.39;30.03
70214;DHT22;60138;55.808;37.078;2022-07-12T13:59:11;34.67;30.53
70214;DHT22;60138;55.808;37.078;2022-07-12T14:01:37;34.17;31.76
70214;DHT22;60138;55.808;37.078;2022-07-12T14:04:02;33.70;31.73
70214;DHT22;60138;55.808;37.078;2022-07-12T14:06:28;33.23;31.76
70214;DHT22;60138;55.808;37.078;2022-07-12T14:08:54;32.87;32.60
70214;DHT22;60138;55.808;37.078;2022-07-12T14:11:20;32.71;32.83
70214;DHT22;60138;55.808;37.078;2022-07-12T14:13:46;32.74;32.31
70214;DHT22;60138;55.808;37.078;2022-07-12T14:16:11;33.21;33.04
70214;DHT22;60138;55.808;37.078;2022-07-12T14:18:37;33.82;32.68
70214;DHT22;60138;55.808;37.078;2022-07-12T14:21:03;34.80;32.35
70214;DHT22;60138;55.808;37.078;2022-07-12T14:23:28;36.77;30.13
70214;DHT22;60138;55.808;37.078;2022-07-12T14:25:54;38.35;30.15
70214;DHT22;60138;55.808;37.078;2022-07-12T14:28:20;39.62;28.52
70214;DHT22;60138;55.808;37.078;2022-07-12T14:30:46;40.42;29.10
70214;DHT22;60138;55.808;37.078;2022-07-12T14:33:11;40.91;27.73
70214;DHT22;60138;55.808;37.078;2022-07-12T14:35:37;41.42;26.91
70214;DHT22;60138;55.808;37.078;2022-07-12T14:38:03;42.07;25.68
70214;DHT22;60138;55.808;37.078;2022-07-12T14:40:29;41.98;26.10
70214;DHT22;60138;55.808;37.078;2022-07-12T14:42:54;41.79;25.28
70214;DHT22;60138;55.808;37.078;2022-07-12T14:45:20;40.56;26.38
70214;DHT22;60138;55.808;37.078;2022-07-12T14:47:46;40.51;26.91
70214;DHT22;60138;55.808;37.078;2022-07-12T14:50:11;39.71;27.14
70214;DHT22;60138;55.808;37.078;2022-07-12T14:52:37;39.43;27.39
70214;DHT22;60138;55.808;37.078;2022-07-12T14:55:03;40.10;26.80
70214;DHT22;60138;55.808;37.078;2022-07-12T14:57:29;40.07;25.80
70214;DHT22;60138;55.808;37.078;2022-07-12T14:59:55;40.56;26.75
70214;DHT22;60138;55.808;37.078;2022-07-12T15:02:20;41.18;25.57
70214;DHT22;60138;55.808;37.078;2022-07-12T15:04:46;41.70;25.85
70214;DHT22;60138;55.808;37.078;2022-07-12T15:07:12;42.30;24.47
70214;DHT22;60138;55.808;37.078;2022-07-12T15:09:38;42.81;25.49
70214;DHT22;60138;55.808;37.078;2022-07-12T15:12:04;43.31;26.17
70214;DHT22;60138;55.808;37.078;2022-07-12T15:14:30;43.36;23.65
70214;DHT22;60138;55.808;37.078;2022-07-12T15:16:56;43.68;23.43
70214;DHT22;60138;55.808;37.078;2022-07-12T15:19:21;42.76;23.73
70214;DHT22;60138;55.808;37.078;2022-07-12T15:21:47;42.76;24.09
70214;DHT22;60138;55.808;37.078;2022-07-12T15:24:13;42.55;23.14
70214;DHT22;60138;55.808;37.078;2022-07-12T15:26:39;42.26;23.26
70214;DHT22;60138;55.808;37.078;2022-07-12T15:29:05;41.65;21.38
70214;DHT22;60138;55.808;37.078;2022-07-12T15:31:31;40.11;23.58
70214;DHT22;60138;55.808;37.078;2022-07-12T15:33:57;38.75;24.11
70214;DHT22;60138;55.808;37.078;2022-07-12T15:36:23;37.65;25.17
70214;DHT22;60138;55.808;37.078;2022-07-12T15:38:49;36.67;25.75